Time;durP1;ratioP1;P1;durP2;ratioP2;P2;SDS_P1;SDS_P2;PMS_P1;PMS_P2;Temp;Humidity;BMP_temperature;BMP_pressure;BME280_temperature;BME280_humidity;BME280_pressure;Samples;Min_cycle;Max_cycle;Signal;HPM_P1;HPM_P2
2024/03/11 00:01:45;;;;;;;29.85;13.32;;;8.60;99.90;;;;;;5036959;28;20451;-79
2024/03/11 00:04:11;;;;;;;31.52;13.75;;;8.60;99.90;;;;;;5037190;28;20027;-78
2024/03/11 00:06:40;;;;;;;32.40;13.55;;;8.60;99.90;;;;;;5037304;28;20025;-79
2024/03/11 00:09:15;;;;;;;26.65;12.77;;;8.50;99.90;;;;;;5037309;28;20500;-79
2024/03/11 00:12:05;;;;;;;33.58;14.95;;;8.50;99.90;;;;;;5037814;28;20132;-78
2024/03/11 00:14:30;;;;;;;32.75;13.43;;;8.50;99.90;;;;;;5039098;28;20493;-78
2024/03/11 00:16:57;;;;;;;29.42;13.98;;;8.50;99.90;;;;;;5037238;28;20037;-79
2024/03/11 00:19:23;;;;;;;32.63;14.07;;;8.50;99.90;;;;;;5036578;28;20017;-79
2024/03/11 00:21:56;;;;;;;31.90;13.55;;;8.40;99.90;;;;;;5037969;28;20128;-79
2024/03/11 00:24:23;;;;;;;30.15;13.35;;;8.50;99.90;;;;;;5037063;28;20020;-79
2024/03/11 00:26:49;;;;;;;33.47;14.43;;;8.50;99.90;;;;;;5037058;28;20029;-79
2024/03/11 00:29:15;;;;;;;31.27;14.25;;;8.50;99.90;;;;;;5038832;28;20022;-79
2024/03/11 00:31:42;;;;;;;31.00;13.38;;;8.40;99.90;;;;;;5037342;28;20046;-79
2024/03/11 00:34:08;;;;;;;31.42;14.27;;;8.40;99.90;;;;;;5038483;28;20539;-79
2024/03/11 00:36:34;;;;;;;33.35;14.05;;;8.40;99.90;;;;;;5036750;28;20022;-79
2024/03/11 00:39:03;;;;;;;31.17;13.48;;;8.30;99.90;;;;;;5035507;28;20390;-79
2024/03/11 00:41:29;;;;;;;29.80;13.88;;;8.40;99.90;;;;;;5036632;28;20116;-79
2024/03/11 00:43:55;;;;;;;31.75;14.15;;;8.30;99.90;;;;;;5036962;28;20037;-79
2024/03/11 00:46:21;;;;;;;29.58;13.38;;;8.30;99.90;;;;;;5036364;28;20032;-79
2024/03/11 00:48:49;;;;;;;32.30;14.38;;;8.20;99.90;;;;;;5036594;28;20037;-78
2024/03/11 00:51:16;;;;;;;34.45;13.43;;;8.20;99.90;;;;;;5035531;28;20485;-79
2024/03/11 00:53:42;;;;;;;29.08;12.75;;;8.20;99.90;;;;;;5036250;28;20064;-79
2024/03/11 00:56:08;;;;;;;31.30;14.43;;;;;;;;;;5036601;28;20025;-79
2024/03/11 00:58:36;;;;;;;31.88;13.23;;;8.10;99.90;;;;;;5035955;28;20049;-79
2024/03/11 01:01:05;;;;;;;33.42;14.88;;;8.10;99.90;;;;;;5039863;28;20048;-79
2024/03/11 01:03:31;;;;;;;34.15;14.18;;;8.10;99.90;;;;;;5041193;28;20022;-79
2024/03/11 01:05:58;;;;;;;33.35;14.57;;;8.10;99.90;;;;;;5041998;28;20025;-79
2024/03/11 01:08:24;;;;;;;31.73;14.55;;;8.10;99.90;;;;;;5043208;28;20026;-80
2024/03/11 01:10:50;;;;;;;32.50;13.50;;;8.00;99.90;;;;;;5041703;28;20417;-79
2024/03/11 01:13:16;;;;;;;33.83;14.50;;;8.00;99.90;;;;;;5040114;28;20043;-79
2024/03/11 01:15:43;;;;;;;36.65;14.15;;;8.00;99.90;;;;;;5039248;28;20555;-79
2024/03/11 01:18:08;;;;;;;28.77;12.48;;;8.00;99.90;;;;;;5040751;28;20062;-77
2024/03/11 01:20:34;;;;;;;32.28;14.20;;;8.00;99.90;;;;;;5039567;28;20017;-79
2024/03/11 01:23:01;;;;;;;34.92;14.63;;;7.90;99.90;;;;;;5040653;28;20531;-79
2024/03/11 01:25:27;;;;;;;31.98;13.85;;;8.00;99.90;;;;;;5037773;28;20401;-79
2024/03/11 01:27:53;;;;;;;29.92;14.02;;;7.90;99.90;;;;;;5040673;28;20485;-79
2024/03/11 01:30:20;;;;;;;33.08;14.45;;;7.90;99.90;;;;;;5041408;28;20029;-79
2024/03/11 01:32:46;;;;;;;34.10;14.23;;;7.80;99.90;;;;;;5040419;28;20075;-79
2024/03/11 01:35:13;;;;;;;32.45;14.20;;;7.80;99.90;;;;;;5038752;28;20032;-79
2024/03/11 01:37:42;;;;;;;30.73;14.15;;;8.20;99.90;;;;;;5040991;28;20037;-79
2024/03/11 01:40:13;;;;;;;33.00;13.85;;;7.80;99.90;;;;;;5041502;28;20041;-79
2024/03/11 01:42:42;;;;;;;32.42;14.35;;;7.80;99.90;;;;;;5040020;28;20018;-79
2024/03/11 01:45:08;;;;;;;35.15;14.60;;;7.80;99.90;;;;;;5041377;28;20389;-80
2024/03/11 01:47:35;;;;;;;30.25;12.85;;;7.70;99.90;;;;;;5039564;28;20022;-79
2024/03/11 01:50:07;;;;;;;33.90;14.48;;;7.70;99.90;;;;;;5038518;28;20025;-79
2024/03/11 01:52:56;;;;;;;33.38;13.70;;;7.70;99.90;;;;;;5039061;28;20059;-79
2024/03/11 01:55:24;;;;;;;28.02;12.75;;;7.60;99.90;;;;;;5039473;28;20100;-79
2024/03/11 01:57:54;;;;;;;31.95;13.73;;;7.50;99.90;;;;;;5038123;28;20472;-79
2024/03/11 02:00:24;;;;;;;33.42;13.63;;;7.50;99.90;;;;;;5037601;28;20096;-79
2024/03/11 02:02:54;;;;;;;32.25;13.63;;;7.50;99.90;;;;;;5036747;28;20490;-79
2024/03/11 02:05:21;;;;;;;34.28;14.27;;;7.50;99.90;;;;;;5037627;28;20029;-79
2024/03/11 02:07:57;;;;;;;32.42;15.05;;;7.40;99.90;;;;;;5039120;28;20071;-79
2024/03/11 02:10:24;;;;;;;34.13;14.13;;;7.50;99.90;;;;;;5037902;28;20029;-79
2024/03/11 02:12:51;;;;;;;29.52;13.77;;;7.40;99.90;;;;;;5042712;28;20071;-79
2024/03/11 02:15:20;;;;;;;39.83;14.40;;;7.40;99.90;;;;;;5042831;28;20022;-79
2024/03/11 02:17:46;;;;;;;32.00;13.90;;;7.40;99.90;;;;;;5042653;28;20021;-79
2024/03/11 02:20:16;;;;;;;32.47;14.52;;;7.40;99.90;;;;;;5040556;28;20481;-79
2024/03/11 02:22:53;;;;;;;36.33;14.63;;;7.40;99.90;;;;;;5042534;28;20021;-79
2024/03/11 02:25:27;;;;;;;32.42;13.95;;;7.40;99.90;;;;;;5041953;28;20040;-79
2024/03/11 02:28:03;;;;;;;30.55;14.10;;;7.40;99.90;;;;;;5042106;28;20026;-79
2024/03/11 02:30:29;;;;;;;32.42;13.65;;;7.40;99.90;;;;;;5043714;28;20037;-79
2024/03/11 02:32:55;;;;;;;31.98;14.30;;;7.40;99.90;;;;;;5043203;28;20504;-79
2024/03/11 02:35:22;;;;;;;35.67;15.52;;;7.40;99.90;;;;;;5044402;28;20056;-79
2024/03/11 02:37:48;;;;;;;30.23;12.85;;;7.40;99.90;;;;;;5042276;28;20396;-79
2024/03/11 02:40:19;;;;;;;32.75;13.77;;;7.40;99.90;;;;;;5042063;28;20051;-79
2024/03/11 02:42:45;;;;;;;33.72;14.52;;;9.00;99.90;;;;;;5043291;28;20026;-79
2024/03/11 02:45:15;;;;;;;31.27;14.45;;;7.50;99.90;;;;;;5043381;28;20060;-79
2024/03/11 02:47:41;;;;;;;34.97;14.38;;;7.40;99.90;;;;;;5044245;28;20040;-79
2024/03/11 02:50:07;;;;;;;31.05;13.77;;;7.40;99.90;;;;;;5044349;28;20022;-79
2024/03/11 02:52:34;;;;;;;26.73;13.32;;;7.50;99.90;;;;;;5042187;28;20070;-79
2024/03/11 02:55:01;;;;;;;29.77;13.40;;;7.50;99.90;;;;;;5043187;28;20021;-79
2024/03/11 02:57:27;;;;;;;28.20;13.52;;;9.00;99.90;;;;;;5041627;28;20477;-79
2024/03/11 02:59:53;;;;;;;30.25;13.52;;;7.50;99.90;;;;;;5042938;28;20022;-79
2024/03/11 03:02:20;;;;;;;29.15;13.45;;;7.60;99.90;;;;;;5043732;28;20022;-79
2024/03/11 03:04:46;;;;;;;32.33;13.40;;;7.60;99.90;;;;;;5042120;28;20001;-79
2024/03/11 03:07:12;;;;;;;28.02;12.80;;;7.70;99.90;;;;;;5042035;28;20044;-79
2024/03/11 03:09:39;;;;;;;29.50;13.60;;;7.70;99.90;;;;;;5039704;28;20037;-79
2024/03/11 03:12:05;;;;;;;28.17;13.23;;;7.70;99.90;;;;;;5039530;28;20079;-79
2024/03/11 03:14:31;;;;;;;32.42;14.15;;;7.70;99.90;;;;;;5039050;28;20029;-79
2024/03/11 03:16:59;;;;;;;31.63;13.50;;;7.70;99.90;;;;;;5039100;28;20036;-79
2024/03/11 03:19:25;;;;;;;34.53;14.82;;;7.70;99.90;;;;;;5039781;28;20025;-78
2024/03/11 03:21:51;;;;;;;30.80;12.60;;;7.70;99.90;;;;;;5038826;28;20036;-79
2024/03/11 03:24:16;;;;;;;30.30;13.77;;;7.90;99.90;;;;;;5038635;28;20032;-79
2024/03/11 03:26:43;;;;;;;31.27;13.15;;;7.70;99.90;;;;;;5038837;28;20029;-78
2024/03/11 03:29:09;;;;;;;27.02;12.38;;;;;;;;;;5038956;28;20057;-78
2024/03/11 03:31:35;;;;;;;31.30;13.82;;;7.70;99.90;;;;;;5039632;28;20044;-79
2024/03/11 03:34:00;;;;;;;27.98;13.25;;;7.70;99.90;;;;;;5039273;28;20396;-79
2024/03/11 03:36:28;;;;;;;29.42;13.75;;;7.70;99.90;;;;;;5037720;28;20358;-79
2024/03/11 03:38:54;;;;;;;28.05;13.88;;;7.70;99.90;;;;;;5039309;28;20022;-79
2024/03/11 03:41:19;;;;;;;27.38;13.45;;;7.70;99.90;;;;;;5037506;28;20068;-79
2024/03/11 03:43:46;;;;;;;30.05;12.80;;;7.70;99.90;;;;;;5038991;28;20013;-79
2024/03/11 03:46:13;;;;;;;32.70;14.25;;;7.70;99.90;;;;;;5037783;28;20424;-77
2024/03/11 03:48:39;;;;;;;31.17;13.45;;;7.70;99.90;;;;;;5038110;28;20068;-78
2024/03/11 03:51:05;;;;;;;34.85;13.98;;;7.70;99.90;;;;;;5038174;28;20374;-79
2024/03/11 03:53:31;;;;;;;30.60;13.00;;;7.70;99.90;;;;;;5037535;28;20071;-79
2024/03/11 03:55:57;;;;;;;30.20;13.68;;;7.70;99.90;;;;;;5037295;28;20033;-78
2024/03/11 03:58:23;;;;;;;31.25;14.48;;;7.70;99.90;;;;;;5037306;28;20091;-79
2024/03/11 04:00:48;;;;;;;32.17;14.18;;;7.70;99.90;;;;;;5037441;28;20025;-78
2024/03/11 04:03:18;;;;;;;27.88;13.65;;;7.70;99.90;;;;;;5037228;28;20021;-79
2024/03/11 04:05:48;;;;;;;35.95;15.00;;;7.70;99.90;;;;;;5037826;28;20104;-79
2024/03/11 04:08:15;;;;;;;33.00;13.40;;;7.70;99.90;;;;;;5038787;28;20022;-79
2024/03/11 04:10:41;;;;;;;30.08;13.82;;;7.70;99.90;;;;;;5037875;28;20374;-79
2024/03/11 04:13:06;;;;;;;34.75;14.00;;;7.70;99.90;;;;;;5036343;28;20087;-80
2024/03/11 04:15:32;;;;;;;30.50;14.05;;;7.70;99.90;;;;;;5036766;28;20030;-78
2024/03/11 04:18:03;;;;;;;34.17;14.77;;;7.70;99.90;;;;;;5038151;28;20451;-78
2024/03/11 04:20:29;;;;;;;27.80;13.00;;;7.70;99.90;;;;;;5037687;28;20030;-79
2024/03/11 04:22:55;;;;;;;34.33;14.50;;;7.70;99.90;;;;;;5036779;28;20024;-78
2024/03/11 04:25:23;;;;;;;32.00;14.30;;;7.70;99.90;;;;;;5039034;28;20521;-79
2024/03/11 04:27:52;;;;;;;28.92;13.45;;;7.20;99.90;;;;;;5038251;28;20029;-79
2024/03/11 04:30:20;;;;;;;30.85;14.65;;;7.70;99.90;;;;;;5038880;28;20086;-79
2024/03/11 04:32:51;;;;;;;32.97;14.52;;;7.70;99.90;;;;;;5039017;28;20025;-80
2024/03/11 04:35:18;;;;;;;36.15;14.40;;;7.70;99.90;;;;;;5041840;28;20064;-79
2024/03/11 04:37:44;;;;;;;32.63;14.65;;;7.70;99.90;;;;;;5040327;28;20534;-79
2024/03/11 04:40:12;;;;;;;29.13;13.27;;;7.60;99.90;;;;;;5040695;28;20116;-80
2024/03/11 04:42:38;;;;;;;33.20;14.40;;;7.60;99.90;;;;;;5041075;28;20037;-78
2024/03/11 04:45:05;;;;;;;37.08;14.95;;;7.60;99.90;;;;;;5040286;28;20396;-79
2024/03/11 04:47:31;;;;;;;33.35;15.35;;;7.50;99.90;;;;;;5040412;28;20116;-79
2024/03/11 04:49:57;;;;;;;31.17;13.82;;;7.60;99.90;;;;;;5042041;28;20017;-79
2024/03/11 04:52:24;;;;;;;30.30;14.90;;;8.70;99.90;;;;;;5041383;28;20023;-79
2024/03/11 04:54:52;;;;;;;30.50;13.85;;;;;;;;;;5040613;28;20014;-79
2024/03/11 04:57:18;;;;;;;34.28;15.13;;;7.50;99.90;;;;;;5041560;28;20036;-80
2024/03/11 04:59:43;;;;;;;31.63;14.02;;;7.50;99.90;;;;;;5041256;28;20032;-80
2024/03/11 05:02:09;;;;;;;31.15;14.95;;;7.50;99.90;;;;;;5042548;28;20433;-79
2024/03/11 05:04:36;;;;;;;32.03;14.38;;;7.50;99.90;;;;;;5040740;28;20160;-79
2024/03/11 05:07:02;;;;;;;32.10;14.60;;;7.50;99.90;;;;;;5041229;28;20039;-79
2024/03/11 05:09:27;;;;;;;32.75;13.98;;;7.40;99.90;;;;;;5041228;28;20448;-79
2024/03/11 05:11:53;;;;;;;32.05;14.55;;;7.40;99.90;;;;;;5041218;28;20035;-79
2024/03/11 05:14:19;;;;;;;35.05;15.10;;;8.50;99.90;;;;;;5043010;28;20038;-80
2024/03/11 05:16:44;;;;;;;33.03;16.17;;;7.50;99.90;;;;;;5041009;28;20014;-79
2024/03/11 05:19:11;;;;;;;31.45;14.73;;;7.50;99.90;;;;;;5042141;28;20108;-79
2024/03/11 05:21:36;;;;;;;36.03;16.50;;;7.50;99.90;;;;;;5042640;28;20389;-79
2024/03/11 05:24:02;;;;;;;36.17;15.23;;;7.50;99.90;;;;;;5040690;28;20014;-79
2024/03/11 05:26:28;;;;;;;33.13;15.13;;;7.50;99.90;;;;;;5042634;28;20025;-79
2024/03/11 05:28:54;;;;;;;32.90;15.68;;;7.50;99.90;;;;;;5042965;28;20442;-79
2024/03/11 05:31:20;;;;;;;38.33;16.00;;;7.50;99.90;;;;;;5041827;28;20400;-79
2024/03/11 05:33:46;;;;;;;36.95;15.98;;;7.50;99.90;;;;;;5042096;28;20029;-79
2024/03/11 05:36:14;;;;;;;35.20;15.82;;;7.50;99.90;;;;;;5042148;28;20032;-80
2024/03/11 05:38:40;;;;;;;35.53;15.80;;;7.50;99.90;;;;;;5039092;28;20057;-78
2024/03/11 05:41:05;;;;;;;35.40;15.73;;;7.50;99.90;;;;;;5041227;28;20550;-79
2024/03/11 05:43:31;;;;;;;39.88;15.90;;;7.50;99.90;;;;;;5040658;28;20021;-79
2024/03/11 05:45:57;;;;;;;36.13;15.48;;;7.50;99.90;;;;;;5039750;28;20032;-79
2024/03/11 05:48:24;;;;;;;35.08;15.05;;;7.50;99.90;;;;;;5038990;28;20030;-79
2024/03/11 05:50:51;;;;;;;37.38;16.15;;;7.50;99.90;;;;;;5041736;28;20033;-79
2024/03/11 05:53:19;;;;;;;33.75;15.23;;;8.20;99.90;;;;;;5041155;28;20148;-79
2024/03/11 05:55:46;;;;;;;44.03;14.98;;;7.40;99.90;;;;;;5039295;28;20108;-79
2024/03/11 05:58:14;;;;;;;38.10;16.40;;;7.40;99.90;;;;;;5039939;28;20029;-79
2024/03/11 06:00:46;;;;;;;31.15;15.10;;;7.40;99.90;;;;;;5042080;28;20033;-79
2024/03/11 06:03:11;;;;;;;36.35;15.77;;;7.40;99.90;;;;;;5041396;28;20083;-80
2024/03/11 06:05:38;;;;;;;40.03;16.80;;;;;;;;;;5037956;28;20030;-79
2024/03/11 06:08:04;;;;;;;34.40;14.43;;;7.40;99.90;;;;;;5039383;28;20025;-79
2024/03/11 06:10:30;;;;;;;37.25;16.15;;;7.40;99.90;;;;;;5038382;28;20033;-79
2024/03/11 06:12:57;;;;;;;32.67;15.27;;;7.40;99.90;;;;;;5039897;28;20021;-79
2024/03/11 06:15:24;;;;;;;37.90;17.02;;;7.30;99.90;;;;;;5039145;28;20028;-80
2024/03/11 06:17:50;;;;;;;42.63;18.33;;;8.30;99.90;;;;;;5038650;28;20025;-79
2024/03/11 06:20:16;;;;;;;36.35;17.00;;;7.30;99.90;;;;;;5039839;28;20029;-79
2024/03/11 06:22:42;;;;;;;56.70;18.77;;;7.40;99.90;;;;;;5037203;28;20052;-79
2024/03/11 06:25:09;;;;;;;39.92;17.02;;;7.40;99.90;;;;;;5040864;28;20031;-80
2024/03/11 06:27:36;;;;;;;40.22;17.00;;;7.30;99.90;;;;;;5039860;28;20021;-79
2024/03/11 06:30:02;;;;;;;34.35;16.00;;;7.30;99.90;;;;;;5040474;28;20037;-80
2024/03/11 06:32:30;;;;;;;36.78;16.00;;;7.30;99.90;;;;;;5039353;28;20041;-79
2024/03/11 06:34:57;;;;;;;37.17;16.47;;;7.30;99.90;;;;;;5041730;28;20018;-79
2024/03/11 06:37:23;;;;;;;39.15;16.75;;;7.30;99.90;;;;;;5040545;28;20022;-80
2024/03/11 06:39:49;;;;;;;41.70;17.75;;;7.30;99.90;;;;;;5040340;28;20109;-83
2024/03/11 06:42:14;;;;;;;39.45;17.50;;;7.40;99.90;;;;;;5042492;28;20533;-84
2024/03/11 06:44:40;;;;;;;39.83;16.65;;;7.40;99.90;;;;;;5039690;28;20052;-83
2024/03/11 06:47:08;;;;;;;38.42;17.17;;;;;;;;;;5039083;28;20112;-83
2024/03/11 06:49:34;;;;;;;39.63;17.63;;;7.40;99.90;;;;;;5038803;28;20022;-83
2024/03/11 06:52:01;;;;;;;41.40;16.73;;;7.40;99.90;;;;;;5038672;28;20112;-83
2024/03/11 06:54:28;;;;;;;41.80;17.67;;;7.40;99.90;;;;;;5038539;28;20033;-82
2024/03/11 06:56:54;;;;;;;38.65;18.17;;;7.40;99.90;;;;;;5038975;28;20032;-83
2024/03/11 06:59:20;;;;;;;38.75;17.60;;;7.40;99.90;;;;;;5043692;28;20017;-82
2024/03/11 07:01:45;;;;;;;38.20;17.05;;;7.40;99.90;;;;;;5042235;28;20025;-83
2024/03/11 07:04:11;;;;;;;36.10;15.95;;;7.40;99.90;;;;;;5042785;28;20033;-82
2024/03/11 07:06:40;;;;;;;39.10;17.17;;;7.40;99.90;;;;;;5042315;28;20021;-81
2024/03/11 07:09:07;;;;;;;;;;;7.40;99.90;;;;;;5042239;28;20094;-82
2024/03/11 07:11:33;;;;;;;44.42;17.58;;;;;;;;;;5043402;28;19905;-83
2024/03/11 07:13:58;;;;;;;35.92;17.17;;;7.40;99.90;;;;;;5041286;28;20029;-82
2024/03/11 07:16:26;;;;;;;38.85;16.42;;;7.40;99.90;;;;;;5040814;28;20031;-83
2024/03/11 07:18:54;;;;;;;39.70;17.63;;;7.40;99.90;;;;;;5041524;28;20014;-83
2024/03/11 07:21:20;;;;;;;42.92;17.67;;;7.40;99.90;;;;;;5040873;28;20264;-83
2024/03/11 07:23:48;;;;;;;43.20;18.10;;;8.30;99.90;;;;;;5040775;28;20026;-83
2024/03/11 07:26:14;;;;;;;44.78;19.80;;;7.40;99.90;;;;;;5041194;28;20025;-83
2024/03/11 07:28:40;;;;;;;45.00;18.40;;;;;;;;;;5041691;28;20064;-84
2024/03/11 07:31:06;;;;;;;41.40;18.08;;;7.40;99.90;;;;;;5041843;28;20093;-84
2024/03/11 07:33:32;;;;;;;40.85;16.88;;;7.40;99.90;;;;;;5041365;28;20504;-83
2024/03/11 07:35:57;;;;;;;41.95;18.63;;;7.40;99.90;;;;;;5042353;28;20466;-83
2024/03/11 07:38:23;;;;;;;42.58;19.35;;;7.40;99.90;;;;;;5041433;28;20036;-83
2024/03/11 07:40:50;;;;;;;39.63;17.58;;;7.40;99.90;;;;;;5041243;28;20029;-83
2024/03/11 07:43:15;;;;;;;40.88;16.33;;;7.40;99.90;;;;;;5042349;28;20476;-83
2024/03/11 07:45:42;;;;;;;44.30;19.33;;;7.70;99.90;;;;;;5040353;28;20034;-83
2024/03/11 07:48:15;;;;;;;41.70;18.20;;;7.40;99.90;;;;;;5040091;28;20083;-83
2024/03/11 07:50:41;;;;;;;40.83;18.27;;;7.40;99.90;;;;;;5040114;28;20053;-83
2024/03/11 07:53:08;;;;;;;43.95;19.70;;;7.40;99.90;;;;;;5040031;28;20037;-84
2024/03/11 07:55:35;;;;;;;40.55;18.13;;;7.40;99.90;;;;;;5039704;28;20028;-82
2024/03/11 07:58:01;;;;;;;43.15;17.90;;;7.40;99.90;;;;;;5040439;28;20107;-83
2024/03/11 08:00:31;;;;;;;41.50;17.77;;;7.40;99.90;;;;;;5039102;28;20100;-83
2024/03/11 08:02:57;;;;;;;47.85;20.27;;;7.50;99.90;;;;;;5039275;28;20437;-83
2024/03/11 08:05:23;;;;;;;43.47;18.88;;;7.40;99.90;;;;;;5039177;28;20374;-83
2024/03/11 08:07:50;;;;;;;40.47;18.98;;;7.50;99.90;;;;;;5040278;28;20396;-84
2024/03/11 08:10:16;;;;;;;41.35;18.23;;;7.50;99.90;;;;;;5039983;28;20021;-83
2024/03/11 08:12:43;;;;;;;39.72;17.58;;;7.50;99.90;;;;;;5040234;28;20029;-83
2024/03/11 08:15:14;;;;;;;43.65;17.60;;;7.50;99.90;;;;;;5039636;28;20063;-84
2024/03/11 08:17:47;;;;;;;42.42;18.40;;;7.70;99.90;;;;;;5044020;28;20033;-80
2024/03/11 08:20:17;;;;;;;45.30;17.88;;;7.50;99.90;;;;;;5047949;28;20029;-80
2024/03/11 08:23:01;;;;;;;43.90;18.30;;;7.50;99.90;;;;;;5048599;28;20017;-80
2024/03/11 08:25:31;;;;;;;41.13;17.77;;;7.50;99.90;;;;;;5048196;28;20056;-80
2024/03/11 08:27:57;;;;;;;39.53;17.13;;;7.50;99.90;;;;;;5047801;28;20053;-80
2024/03/11 08:30:29;;;;;;;41.13;17.45;;;7.50;99.90;;;;;;5047093;28;20041;-80
2024/03/11 08:32:56;;;;;;;44.95;17.88;;;7.60;99.90;;;;;;5048578;28;20034;-80
2024/03/11 08:35:23;;;;;;;41.05;17.42;;;7.60;99.90;;;;;;5047938;28;20021;-79
2024/03/11 08:37:49;;;;;;;44.08;17.50;;;;;;;;;;5041134;28;20424;-83
2024/03/11 08:40:16;;;;;;;39.03;18.27;;;7.60;99.90;;;;;;5040283;28;20388;-84
2024/03/11 08:42:47;;;;;;;43.15;18.98;;;7.60;99.90;;;;;;5040106;28;20013;-83
2024/03/11 08:45:13;;;;;;;40.75;17.02;;;7.50;99.90;;;;;;5039033;28;20055;-83
2024/03/11 08:47:41;;;;;;;42.97;18.45;;;7.50;99.90;;;;;;5039014;28;20071;-83
2024/03/11 08:50:08;;;;;;;;;;;7.60;99.90;;;;;;5039623;28;20032;-83
2024/03/11 08:52:35;;;;;;;41.42;16.92;;;7.60;99.90;;;;;;5039540;28;19905;-83
2024/03/11 08:55:05;;;;;;;39.55;16.25;;;8.50;99.90;;;;;;5038574;28;20104;-83
2024/03/11 08:57:33;;;;;;;37.45;18.20;;;7.60;99.90;;;;;;5040144;28;20052;-82
2024/03/11 09:00:00;;;;;;;40.58;17.38;;;7.60;99.90;;;;;;5039082;28;20030;-83
2024/03/11 09:02:30;;;;;;;41.80;17.02;;;7.60;99.90;;;;;;5038830;28;20017;-84
2024/03/11 09:04:56;;;;;;;39.60;16.88;;;7.60;99.90;;;;;;5039240;28;20083;-83
2024/03/11 09:07:22;;;;;;;35.95;16.80;;;7.50;99.90;;;;;;5039564;28;20071;-83
2024/03/11 09:09:48;;;;;;;37.03;16.52;;;7.60;99.90;;;;;;5039996;28;20029;-83
2024/03/11 09:12:14;;;;;;;34.58;15.70;;;7.60;99.90;;;;;;5038593;28;20033;-84
2024/03/11 09:14:40;;;;;;;38.95;17.38;;;7.70;99.90;;;;;;5038305;28;20036;-83
2024/03/11 09:17:06;;;;;;;36.63;16.05;;;7.60;99.90;;;;;;5039055;28;20075;-83
2024/03/11 09:19:32;;;;;;;46.33;19.00;;;7.70;99.90;;;;;;5039256;28;20032;-83
2024/03/11 09:21:58;;;;;;;37.45;17.33;;;7.70;99.90;;;;;;5038373;28;20493;-83
2024/03/11 09:24:24;;;;;;;38.38;16.75;;;7.70;99.90;;;;;;5038488;28;20029;-84
2024/03/11 09:26:51;;;;;;;36.78;16.70;;;7.70;99.90;;;;;;5037802;28;20116;-83
2024/03/11 09:29:19;;;;;;;39.33;17.02;;;7.70;99.90;;;;;;5037707;28;20544;-83
2024/03/11 09:31:46;;;;;;;42.70;17.27;;;7.70;99.90;;;;;;5038669;28;20512;-82
2024/03/11 09:34:12;;;;;;;43.05;17.75;;;7.70;99.90;;;;;;5039444;28;20029;-83
2024/03/11 09:36:38;;;;;;;44.22;18.42;;;7.70;99.90;;;;;;5039144;28;20212;-83
2024/03/11 09:39:06;;;;;;;45.75;17.90;;;7.80;99.90;;;;;;5038865;28;20021;-83
2024/03/11 09:42:00;;;;;;;40.17;17.08;;;7.70;99.90;;;;;;5039205;28;20035;-83
2024/03/11 09:44:26;;;;;;;43.30;17.52;;;7.80;99.90;;;;;;5037781;28;20030;-83
2024/03/11 09:46:52;;;;;;;39.50;17.42;;;7.70;99.90;;;;;;5039313;28;20048;-83
2024/03/11 09:49:24;;;;;;;48.50;19.75;;;;;;;;;;5039675;28;20027;-83
2024/03/11 09:51:53;;;;;;;38.15;16.75;;;7.80;99.90;;;;;;5039321;28;20049;-83
2024/03/11 09:54:21;;;;;;;45.60;17.75;;;7.80;99.90;;;;;;5038304;28;20033;-81
2024/03/11 09:56:53;;;;;;;44.67;17.33;;;7.80;99.90;;;;;;5038222;28;20017;-83
2024/03/11 09:59:24;;;;;;;43.42;18.55;;;7.70;99.90;;;;;;5039926;28;20555;-83
2024/03/11 10:01:54;;;;;;;43.88;16.88;;;7.80;99.90;;;;;;5037942;28;20032;-83
2024/03/11 10:04:25;;;;;;;40.60;17.58;;;7.80;99.90;;;;;;5038144;28;20541;-81
2024/03/11 10:06:59;;;;;;;43.22;17.63;;;8.20;99.90;;;;;;5039451;28;20017;-83
2024/03/11 10:09:28;;;;;;;37.15;16.80;;;7.80;99.90;;;;;;5038078;28;20060;-82
2024/03/11 10:12:03;;;;;;;;;;;7.80;99.90;;;;;;5037575;28;20040;-83
2024/03/11 10:14:35;;;;;;;39.15;16.52;;;7.90;99.90;;;;;;5039195;28;19959;-84
2024/03/11 10:17:16;;;;;;;44.10;17.40;;;7.90;99.90;;;;;;5039545;28;20432;-83
2024/03/11 10:19:56;;;;;;;40.38;17.27;;;7.80;99.90;;;;;;5039512;28;20102;-83
2024/03/11 10:22:23;;;;;;;40.28;16.88;;;7.90;99.90;;;;;;5039962;28;20089;-83
2024/03/11 10:24:52;;;;;;;41.25;17.92;;;7.90;99.90;;;;;;5039864;28;20030;-84
2024/03/11 10:27:19;;;;;;;39.88;17.05;;;7.90;99.90;;;;;;5038337;28;20034;-84
2024/03/11 10:29:45;;;;;;;47.15;19.83;;;7.90;99.90;;;;;;5038496;28;20109;-83
2024/03/11 10:32:32;;;;;;;41.90;16.77;;;8.00;99.90;;;;;;5040055;28;20126;-83
2024/03/11 10:34:59;;;;;;;48.83;17.60;;;;;;;;;;5043554;28;20079;-81
2024/03/11 10:37:24;;;;;;;43.88;18.35;;;8.10;99.90;;;;;;5042558;28;20072;-82
2024/03/11 10:39:50;;;;;;;45.00;18.17;;;8.10;99.90;;;;;;5042889;28;20025;-82
2024/03/11 10:42:28;;;;;;;42.47;17.67;;;8.10;99.90;;;;;;5043520;28;20010;-82
2024/03/11 10:44:57;;;;;;;48.72;17.80;;;8.20;99.90;;;;;;5043541;28;20028;-82
2024/03/11 10:47:23;;;;;;;43.10;17.45;;;8.20;99.90;;;;;;5043380;28;20025;-82
2024/03/11 10:49:55;;;;;;;39.15;15.85;;;8.20;99.90;;;;;;5043193;28;20167;-82
2024/03/11 10:52:24;;;;;;;41.17;16.08;;;8.20;99.90;;;;;;5042931;28;20022;-83
2024/03/11 10:54:56;;;;;;;38.92;16.55;;;8.20;99.90;;;;;;5042896;28;20029;-82
2024/03/11 10:57:38;;;;;;;41.38;17.50;;;8.20;99.90;;;;;;5042846;28;20057;-82
2024/03/11 11:00:18;;;;;;;35.90;14.95;;;8.20;99.90;;;;;;5042977;28;20079;-82
2024/03/11 11:02:49;;;;;;;43.53;18.15;;;8.20;99.90;;;;;;5043469;28;20025;-82
2024/03/11 11:05:17;;;;;;;39.58;15.93;;;;;;;;;;5041677;28;20485;-82
2024/03/11 11:07:44;;;;;;;35.93;16.80;;;8.30;99.90;;;;;;5041653;28;20029;-83
2024/03/11 11:10:13;;;;;;;37.08;15.77;;;8.30;99.90;;;;;;5041820;28;20060;-83
2024/03/11 11:12:42;;;;;;;38.08;16.25;;;8.20;99.90;;;;;;5041671;28;20504;-83
2024/03/11 11:15:14;;;;;;;36.13;15.52;;;8.20;99.90;;;;;;5042008;28;20025;-82
2024/03/11 11:17:42;;;;;;;42.17;16.98;;;8.10;99.90;;;;;;5041992;28;20429;-82
2024/03/11 11:23:00;;;;;;;35.78;15.18;;;8.10;99.90;;;;;;5043445;28;20056;-83
2024/03/11 11:25:44;;;;;;;40.30;16.20;;;8.10;99.90;;;;;;5041773;28;20024;-82
2024/03/11 11:28:13;;;;;;;34.63;13.88;;;8.00;99.90;;;;;;5041058;28;20021;-82
2024/03/11 11:30:48;;;;;;;38.95;15.80;;;8.00;99.90;;;;;;5042429;28;20021;-82
2024/03/11 11:33:56;;;;;;;40.88;16.42;;;8.00;99.90;;;;;;5042274;28;20068;-82
2024/03/11 11:36:31;;;;;;;37.90;15.00;;;8.00;99.90;;;;;;5042559;28;20024;-80
2024/03/11 11:39:17;;;;;;;39.92;16.98;;;8.00;99.90;;;;;;5041078;28;20029;-80
2024/03/11 11:41:50;;;;;;;36.67;15.23;;;8.40;99.90;;;;;;5041108;28;20436;-80
2024/03/11 11:44:28;;;;;;;40.03;16.38;;;7.90;99.90;;;;;;5040593;28;20018;-80
2024/03/11 11:47:03;;;;;;;34.22;14.55;;;7.90;99.90;;;;;;5040632;28;20022;-80
2024/03/11 11:49:40;;;;;;;35.22;14.77;;;7.90;99.90;;;;;;5040466;28;20408;-80
2024/03/11 11:52:08;;;;;;;41.47;16.35;;;7.90;99.90;;;;;;5041123;28;20034;-80
2024/03/11 11:54:36;;;;;;;34.33;15.48;;;9.90;99.90;;;;;;5039523;28;20033;-80
2024/03/11 11:57:11;;;;;;;35.65;14.88;;;7.80;99.90;;;;;;5039771;28;20029;-80
2024/03/11 11:59:37;;;;;;;41.95;16.25;;;7.80;99.90;;;;;;5041539;28;20085;-79
2024/03/11 12:02:03;;;;;;;36.13;15.45;;;7.80;99.90;;;;;;5042494;28;20512;-80
2024/03/11 12:04:29;;;;;;;34.65;14.77;;;7.80;99.90;;;;;;5042540;28;20032;-80
2024/03/11 12:06:55;;;;;;;38.22;17.48;;;7.80;99.90;;;;;;5040119;28;20552;-80
2024/03/11 12:09:23;;;;;;;36.28;14.95;;;7.70;99.90;;;;;;5040408;28;20398;-79
2024/03/11 12:11:49;;;;;;;35.77;15.47;;;7.70;99.90;;;;;;5040351;28;20389;-80
2024/03/11 12:14:19;;;;;;;35.38;15.63;;;;;;;;;;5041309;28;20085;-80
2024/03/11 12:16:46;;;;;;;39.42;15.23;;;7.70;99.90;;;;;;5039515;28;20021;-79
2024/03/11 12:19:11;;;;;;;40.03;15.70;;;7.70;99.90;;;;;;5040784;28;20381;-79
2024/03/11 12:21:42;;;;;;;33.17;14.90;;;7.70;99.90;;;;;;5041450;28;20032;-80
2024/03/11 12:24:14;;;;;;;45.17;17.33;;;7.70;99.90;;;;;;5042578;28;20022;-80
2024/03/11 12:26:45;;;;;;;39.47;15.27;;;9.10;99.90;;;;;;5040182;28;20032;-79
2024/03/11 12:29:14;;;;;;;38.08;16.90;;;7.80;99.90;;;;;;5040841;28;20108;-80
2024/03/11 12:31:41;;;;;;;34.15;14.80;;;7.80;99.90;;;;;;5038797;28;20025;-79
2024/03/11 12:34:09;;;;;;;35.83;15.20;;;7.80;99.90;;;;;;5039810;28;20108;-80
2024/03/11 12:36:40;;;;;;;36.10;14.40;;;7.80;99.90;;;;;;5037586;28;20116;-79
2024/03/11 12:39:21;;;;;;;33.92;13.98;;;7.80;99.90;;;;;;5037862;28;20108;-79
2024/03/11 12:41:47;;;;;;;34.78;14.23;;;7.80;99.90;;;;;;5040103;28;20041;-80
2024/03/11 12:44:18;;;;;;;30.98;15.48;;;7.80;99.90;;;;;;5037748;28;20028;-80
2024/03/11 12:46:45;;;;;;;38.38;16.33;;;7.80;99.90;;;;;;5039498;28;20108;-79
2024/03/11 12:49:12;;;;;;;33.92;14.68;;;7.70;99.90;;;;;;5037521;28;20029;-80